CXA242 ZGHA-ZYHB
Flight info
| Callsign | CXA242 |
|---|---|
| Flight time | N/A |
| Altitude | 36000 |
| Route | OPORU W56 VYK G212 SOTMU B339 HUR B334 TGO G212 RUSBO W203 PIGAM PIG08A |
| Aircraft | B738/M-SDE2E3FGHIRWXY/LB1 |
Departure
| Time | 2026-04-23 12:08 |
|---|---|
| Airport | Changsha Huanghua International Airport (ZGHA) |
Arrival
| Time | N/A |
|---|---|
| Airport | Harbin Taiping International Airport (ZYHB) |
| Time | Latitude | Longitude | Altitude | Speed | Heading |
|---|---|---|---|---|---|
| 2026-04-23 11:13 | 28.19614 | 113.21541 | 213 ft | 0 kts | 261° |
| 2026-04-23 11:54 | 28.19614 | 113.21542 | 213 ft | 0 kts | 261° |
| 2026-04-23 11:55 | 28.19615 | 113.21550 | 213 ft | 3 kts | 261° |
| 2026-04-23 11:55 | 28.19618 | 113.21571 | 213 ft | 3 kts | 261° |
| 2026-04-23 11:55 | 28.19620 | 113.21592 | 213 ft | 3 kts | 261° |
| 2026-04-23 11:55 | 28.19623 | 113.21613 | 213 ft | 3 kts | 239° |
| 2026-04-23 11:56 | 28.19638 | 113.21625 | 213 ft | 3 kts | 173° |
| 2026-04-23 11:56 | 28.19651 | 113.21619 | 218 ft | 0 kts | 122° |
| 2026-04-23 11:58 | 28.19652 | 113.21618 | 213 ft | 0 kts | 112° |
| 2026-04-23 11:58 | 28.19653 | 113.21616 | 213 ft | 2 kts | 109° |
| 2026-04-23 11:58 | 28.19655 | 113.21604 | 213 ft | 2 kts | 94° |
| 2026-04-23 11:58 | 28.19656 | 113.21593 | 213 ft | 0 kts | 88° |
| 2026-04-23 11:59 | 28.19656 | 113.21592 | 213 ft | 0 kts | 87° |
| 2026-04-23 12:00 | 28.19655 | 113.21580 | 217 ft | 2 kts | 83° |
| 2026-04-23 12:00 | 28.19653 | 113.21563 | 213 ft | 2 kts | 80° |
| 2026-04-23 12:00 | 28.19651 | 113.21555 | 213 ft | 0 kts | 79° |
| 2026-04-23 12:00 | 28.19651 | 113.21558 | 218 ft | 3 kts | 84° |
| 2026-04-23 12:01 | 28.19636 | 113.21611 | 217 ft | 11 kts | 129° |
| 2026-04-23 12:01 | 28.19545 | 113.21646 | 213 ft | 18 kts | 175° |
| 2026-04-23 12:01 | 28.19411 | 113.21652 | 219 ft | 21 kts | 179° |
| 2026-04-23 12:01 | 28.19264 | 113.21659 | 217 ft | 22 kts | 177° |
| 2026-04-23 12:02 | 28.19116 | 113.21667 | 216 ft | 21 kts | 177° |
| 2026-04-23 12:02 | 28.18973 | 113.21676 | 213 ft | 20 kts | 176° |
| 2026-04-23 12:02 | 28.18834 | 113.21685 | 219 ft | 20 kts | 178° |
| 2026-04-23 12:02 | 28.18709 | 113.21702 | 216 ft | 16 kts | 162° |
| 2026-04-23 12:03 | 28.18634 | 113.21787 | 213 ft | 15 kts | 143° |
| 2026-04-23 12:03 | 28.18531 | 113.21809 | 220 ft | 16 kts | 178° |
| 2026-04-23 12:03 | 28.18414 | 113.21816 | 221 ft | 18 kts | 176° |
| 2026-04-23 12:03 | 28.18274 | 113.21827 | 218 ft | 23 kts | 175° |
| 2026-04-23 12:04 | 28.18121 | 113.21844 | 217 ft | 11 kts | 156° |
| 2026-04-23 12:04 | 28.18094 | 113.21920 | 214 ft | 15 kts | 96° |
| 2026-04-23 12:04 | 28.18078 | 113.22049 | 219 ft | 17 kts | 102° |
| 2026-04-23 12:04 | 28.18049 | 113.22184 | 217 ft | 18 kts | 121° |
| 2026-04-23 12:05 | 28.17942 | 113.22233 | 213 ft | 17 kts | 177° |
| 2026-04-23 12:05 | 28.17833 | 113.22241 | 218 ft | 11 kts | 175° |
| 2026-04-23 12:05 | 28.17755 | 113.22249 | 218 ft | 11 kts | 174° |
| 2026-04-23 12:05 | 28.17679 | 113.22248 | 213 ft | 11 kts | 182° |
| 2026-04-23 12:06 | 28.17606 | 113.22252 | 216 ft | 10 kts | 173° |
| 2026-04-23 12:06 | 28.17530 | 113.22268 | 217 ft | 13 kts | 158° |
| 2026-04-23 12:06 | 28.17529 | 113.22432 | 217 ft | 10 kts | 30° |
| 2026-04-23 12:07 | 28.17559 | 113.22443 | 213 ft | 3 kts | 16° |
| 2026-04-23 12:07 | 28.17577 | 113.22446 | 213 ft | 3 kts | 2° |
| 2026-04-23 12:07 | 28.17604 | 113.22446 | 217 ft | 10 kts | 359° |
| 2026-04-23 12:07 | 28.17839 | 113.22435 | 217 ft | 66 kts | 357° |
| 2026-04-23 12:08 | 28.18550 | 113.22389 | 220 ft | 136 kts | 356° |
| 2026-04-23 12:08 | 28.19679 | 113.22317 | 361 ft | 177 kts | 357° |
| 2026-04-23 12:08 | 28.20945 | 113.22253 | 1071 ft | 191 kts | 358° |
| 2026-04-23 12:08 | 28.22290 | 113.22157 | 1891 ft | 196 kts | 359° |
| 2026-04-23 12:09 | 28.23636 | 113.22665 | 2157 ft | 220 kts | 36° |
| 2026-04-23 12:09 | 28.24910 | 113.23736 | 2522 ft | 237 kts | 33° |
| 2026-04-23 12:09 | 28.26368 | 113.24689 | 3104 ft | 242 kts | 26° |
| 2026-04-23 12:09 | 28.27899 | 113.25546 | 3746 ft | 254 kts | 24° |
| 2026-04-23 12:10 | 28.29535 | 113.26415 | 4434 ft | 263 kts | 24° |
| 2026-04-23 12:10 | 28.31199 | 113.27279 | 5219 ft | 268 kts | 24° |
| 2026-04-23 12:10 | 28.32923 | 113.28162 | 6104 ft | 269 kts | 23° |
| 2026-04-23 12:10 | 28.34619 | 113.29022 | 6940 ft | 272 kts | 23° |
| 2026-04-23 12:11 | 28.36364 | 113.29903 | 7745 ft | 275 kts | 23° |
| 2026-04-23 12:11 | 28.38117 | 113.30784 | 8604 ft | 276 kts | 23° |
| 2026-04-23 12:11 | 28.39886 | 113.31670 | 9411 ft | 279 kts | 22° |
| 2026-04-23 12:11 | 28.41674 | 113.32564 | 10177 ft | 282 kts | 22° |
| 2026-04-23 12:12 | 28.43523 | 113.33487 | 10549 ft | 302 kts | 21° |
| 2026-04-23 12:12 | 28.45531 | 113.34488 | 10726 ft | 326 kts | 21° |
| 2026-04-23 12:12 | 28.47677 | 113.35558 | 10980 ft | 345 kts | 21° |
| 2026-04-23 12:12 | 28.49895 | 113.36667 | 11598 ft | 351 kts | 21° |
| 2026-04-23 12:13 | 28.52140 | 113.37792 | 12334 ft | 353 kts | 20° |
| 2026-04-23 12:13 | 28.54393 | 113.38919 | 13008 ft | 356 kts | 20° |
| 2026-04-23 12:13 | 28.56686 | 113.40064 | 13562 ft | 363 kts | 19° |
| 2026-04-23 12:13 | 28.59019 | 113.41230 | 14110 ft | 369 kts | 19° |
| 2026-04-23 12:14 | 28.61381 | 113.42412 | 14707 ft | 372 kts | 19° |
| 2026-04-23 12:14 | 28.63735 | 113.43591 | 15272 ft | 376 kts | 19° |
| 2026-04-23 12:14 | 28.66151 | 113.44802 | 15801 ft | 382 kts | 19° |
| 2026-04-23 12:14 | 28.68598 | 113.46030 | 16346 ft | 387 kts | 19° |
| 2026-04-23 12:15 | 28.71072 | 113.47271 | 16897 ft | 391 kts | 18° |
| 2026-04-23 12:15 | 28.73571 | 113.48525 | 17446 ft | 395 kts | 18° |
| 2026-04-23 12:15 | 28.76135 | 113.49663 | 17898 ft | 395 kts | 9° |
| 2026-04-23 12:15 | 28.78832 | 113.50210 | 18418 ft | 392 kts | 1° |
| 2026-04-23 12:16 | 28.81544 | 113.50485 | 19028 ft | 391 kts | 358° |
| 2026-04-23 12:16 | 28.84273 | 113.50671 | 19452 ft | 396 kts | 357° |
| 2026-04-23 12:16 | 28.87048 | 113.50848 | 19890 ft | 401 kts | 357° |
| 2026-04-23 12:16 | 28.89843 | 113.51033 | 20382 ft | 403 kts | 357° |
| 2026-04-23 12:17 | 28.92649 | 113.51228 | 20885 ft | 406 kts | 357° |
| 2026-04-23 12:17 | 28.95477 | 113.51431 | 21299 ft | 407 kts | 357° |
| 2026-04-23 12:17 | 28.98312 | 113.51638 | 21732 ft | 410 kts | 357° |
| 2026-04-23 12:17 | 29.01184 | 113.51842 | 22019 ft | 416 kts | 357° |
| 2026-04-23 12:18 | 29.04087 | 113.52049 | 22424 ft | 419 kts | 357° |
| 2026-04-23 12:18 | 29.07004 | 113.52259 | 22900 ft | 420 kts | 357° |
| 2026-04-23 12:18 | 29.09925 | 113.52469 | 23364 ft | 422 kts | 356° |
| 2026-04-23 12:18 | 29.12867 | 113.52681 | 23770 ft | 424 kts | 356° |
| 2026-04-23 12:19 | 29.15825 | 113.52894 | 24141 ft | 427 kts | 356° |
| 2026-04-23 12:19 | 29.18762 | 113.53105 | 24514 ft | 430 kts | 356° |
| 2026-04-23 12:19 | 29.21752 | 113.53320 | 24839 ft | 434 kts | 356° |
| 2026-04-23 12:19 | 29.24780 | 113.53536 | 25144 ft | 437 kts | 356° |
| 2026-04-23 12:20 | 29.27823 | 113.53756 | 25488 ft | 439 kts | 356° |
| 2026-04-23 12:20 | 29.30881 | 113.53991 | 25803 ft | 442 kts | 356° |
| 2026-04-23 12:20 | 29.33951 | 113.54253 | 26140 ft | 444 kts | 356° |
| 2026-04-23 12:20 | 29.37047 | 113.54528 | 26380 ft | 449 kts | 356° |
| 2026-04-23 12:21 | 29.40173 | 113.54807 | 26626 ft | 453 kts | 356° |
| 2026-04-23 12:21 | 29.43327 | 113.55089 | 26932 ft | 455 kts | 356° |
| 2026-04-23 12:21 | 29.46488 | 113.55372 | 27227 ft | 456 kts | 356° |
| 2026-04-23 12:21 | 29.49660 | 113.55653 | 27522 ft | 459 kts | 355° |
| 2026-04-23 12:22 | 29.51772 | 113.55840 | 27693 ft | 460 kts | 355° |
| 2026-04-23 12:22 | 29.56060 | 113.56218 | 28021 ft | 464 kts | 355° |
| 2026-04-23 12:22 | 29.59289 | 113.56498 | 28253 ft | 467 kts | 355° |
| 2026-04-23 12:22 | 29.61435 | 113.56685 | 28403 ft | 468 kts | 355° |
| 2026-04-23 12:23 | 29.64693 | 113.56970 | 28637 ft | 471 kts | 355° |
| 2026-04-23 12:23 | 29.67968 | 113.57257 | 28909 ft | 472 kts | 355° |
| 2026-04-23 12:23 | 29.71251 | 113.57545 | 29131 ft | 474 kts | 354° |
| 2026-04-23 12:23 | 29.74557 | 113.57834 | 29286 ft | 478 kts | 354° |
| 2026-04-23 12:24 | 29.77887 | 113.58126 | 29473 ft | 481 kts | 354° |
| 2026-04-23 12:24 | 29.81241 | 113.58424 | 29659 ft | 484 kts | 354° |
| 2026-04-23 12:24 | 29.84563 | 113.58719 | 29906 ft | 485 kts | 354° |
| 2026-04-23 12:24 | 29.87922 | 113.59021 | 30244 ft | 484 kts | 354° |
| 2026-04-23 12:25 | 29.91276 | 113.59323 | 30587 ft | 483 kts | 354° |
| 2026-04-23 12:25 | 29.94640 | 113.59798 | 30874 ft | 492 kts | 1° |
| 2026-04-23 12:25 | 29.97976 | 113.61026 | 31049 ft | 516 kts | 16° |
| 2026-04-23 12:25 | 30.01174 | 113.62902 | 31521 ft | 514 kts | 19° |
| 2026-04-23 12:26 | 30.04330 | 113.64836 | 31946 ft | 511 kts | 18° |
| 2026-04-23 12:26 | 30.07522 | 113.66579 | 32175 ft | 506 kts | 14° |
| 2026-04-23 12:26 | 30.10781 | 113.68113 | 32343 ft | 505 kts | 12° |
| 2026-04-23 12:26 | 30.14060 | 113.69581 | 32597 ft | 505 kts | 12° |
| 2026-04-23 12:27 | 30.17329 | 113.71068 | 32925 ft | 504 kts | 12° |
| 2026-04-23 12:27 | 30.20574 | 113.72600 | 33247 ft | 504 kts | 13° |
| 2026-04-23 12:27 | 30.23810 | 113.74177 | 33536 ft | 504 kts | 14° |
| 2026-04-23 12:27 | 30.27028 | 113.75780 | 33751 ft | 504 kts | 14° |
| 2026-04-23 12:28 | 30.30248 | 113.77401 | 33959 ft | 505 kts | 14° |
| 2026-04-23 12:28 | 30.33472 | 113.79030 | 34186 ft | 505 kts | 14° |
| 2026-04-23 12:28 | 30.36691 | 113.80656 | 34471 ft | 504 kts | 14° |
| 2026-04-23 12:28 | 30.39857 | 113.82252 | 34709 ft | 502 kts | 14° |
| 2026-04-23 12:29 | 30.43062 | 113.83862 | 34833 ft | 505 kts | 14° |
| 2026-04-23 12:29 | 30.46299 | 113.85484 | 34963 ft | 507 kts | 14° |
| 2026-04-23 12:29 | 30.49538 | 113.87111 | 35220 ft | 506 kts | 14° |
| 2026-04-23 12:29 | 30.52753 | 113.88730 | 35536 ft | 503 kts | 14° |
| 2026-04-23 12:30 | 30.55960 | 113.90346 | 35739 ft | 503 kts | 14° |
| 2026-04-23 12:30 | 30.59182 | 113.91968 | 35839 ft | 505 kts | 14° |
| 2026-04-23 12:30 | 30.62413 | 113.93596 | 35973 ft | 507 kts | 14° |
| 2026-04-23 12:30 | 30.65642 | 113.95215 | 36242 ft | 504 kts | 14° |
| 2026-04-23 12:31 | 30.68863 | 113.96778 | 36565 ft | 499 kts | 13° |
| 2026-04-23 12:31 | 30.72066 | 113.98331 | 36800 ft | 499 kts | 14° |
| 2026-04-23 12:31 | 30.75235 | 113.99999 | 37079 ft | 498 kts | 17° |
| 2026-04-23 12:31 | 30.78361 | 114.01764 | 37053 ft | 503 kts | 17° |
| 2026-04-23 12:32 | 30.84620 | 114.05307 | 37052 ft | 497 kts | 17° |
| 2026-04-23 12:32 | 30.90864 | 114.08724 | 37045 ft | 493 kts | 16° |
| 2026-04-23 12:33 | 30.97035 | 114.12062 | 37050 ft | 490 kts | 16° |
| 2026-04-23 12:33 | 31.03193 | 114.15410 | 37037 ft | 488 kts | 16° |
| 2026-04-23 12:34 | 31.09334 | 114.18756 | 37047 ft | 486 kts | 16° |
| 2026-04-23 12:34 | 31.15464 | 114.22090 | 37051 ft | 486 kts | 17° |
| 2026-04-23 12:35 | 31.21601 | 114.25434 | 37044 ft | 487 kts | 17° |
| 2026-04-23 12:35 | 31.27738 | 114.28788 | 37058 ft | 487 kts | 17° |
| 2026-04-23 12:36 | 31.33908 | 114.32077 | 37040 ft | 485 kts | 13° |
| 2026-04-23 12:36 | 31.37087 | 114.33281 | 36983 ft | 473 kts | 1° |
| 2026-04-23 12:36 | 31.40273 | 114.33517 | 37062 ft | 451 kts | 347° |
| 2026-04-23 12:37 | 31.46535 | 114.33182 | 37041 ft | 456 kts | 352° |
| 2026-04-23 12:37 | 31.52917 | 114.33540 | 37045 ft | 461 kts | 354° |
| 2026-04-23 12:38 | 31.59266 | 114.33903 | 37040 ft | 459 kts | 353° |
| 2026-04-23 12:38 | 31.65645 | 114.34105 | 37054 ft | 458 kts | 352° |
| 2026-04-23 12:39 | 31.72033 | 114.34284 | 37042 ft | 458 kts | 353° |
| 2026-04-23 12:39 | 31.78400 | 114.34437 | 37046 ft | 457 kts | 352° |
| 2026-04-23 12:40 | 31.84762 | 114.34580 | 37049 ft | 458 kts | 353° |
| 2026-04-23 12:40 | 31.91140 | 114.34785 | 37048 ft | 458 kts | 353° |
| 2026-04-23 12:41 | 31.97507 | 114.35003 | 37049 ft | 457 kts | 353° |
| 2026-04-23 12:41 | 32.03867 | 114.35208 | 37046 ft | 457 kts | 353° |
| 2026-04-23 12:42 | 32.10229 | 114.35407 | 37043 ft | 457 kts | 353° |
| 2026-04-23 12:42 | 32.16534 | 114.35607 | 37050 ft | 456 kts | 353° |
| 2026-04-23 12:43 | 32.22875 | 114.35810 | 37039 ft | 455 kts | 353° |
| 2026-04-23 12:43 | 32.29211 | 114.36086 | 37041 ft | 457 kts | 355° |
| 2026-04-23 12:44 | 32.35558 | 114.36690 | 37051 ft | 457 kts | 357° |
| 2026-04-23 12:44 | 32.41897 | 114.37331 | 37044 ft | 457 kts | 356° |
| 2026-04-23 12:45 | 32.48225 | 114.37914 | 37049 ft | 456 kts | 356° |
| 2026-04-23 12:45 | 32.54548 | 114.38474 | 37045 ft | 456 kts | 356° |
| 2026-04-23 12:46 | 32.60875 | 114.39039 | 37049 ft | 455 kts | 356° |
| 2026-04-23 12:46 | 32.67195 | 114.39608 | 37042 ft | 456 kts | 356° |
| 2026-04-23 12:47 | 32.73519 | 114.40198 | 37048 ft | 456 kts | 356° |
| 2026-04-23 12:47 | 32.79844 | 114.40795 | 37047 ft | 456 kts | 356° |
| 2026-04-23 12:48 | 32.86141 | 114.41387 | 37044 ft | 457 kts | 356° |
| 2026-04-23 12:48 | 32.92477 | 114.41982 | 37049 ft | 457 kts | 356° |
| 2026-04-23 12:49 | 32.98826 | 114.42578 | 37046 ft | 458 kts | 357° |
| 2026-04-23 12:49 | 33.05187 | 114.43177 | 37048 ft | 458 kts | 357° |
| 2026-04-23 12:50 | 33.11548 | 114.43778 | 37050 ft | 458 kts | 357° |
| 2026-04-23 12:50 | 33.17897 | 114.44378 | 37040 ft | 458 kts | 357° |
| 2026-04-23 12:51 | 33.24247 | 114.44978 | 37032 ft | 458 kts | 357° |
| 2026-04-23 12:51 | 33.30593 | 114.45578 | 37046 ft | 456 kts | 357° |
| 2026-04-23 12:52 | 33.36924 | 114.46177 | 37028 ft | 456 kts | 357° |
| 2026-04-23 12:52 | 33.43239 | 114.46775 | 37042 ft | 454 kts | 357° |
| 2026-04-23 12:53 | 33.49543 | 114.47373 | 37031 ft | 454 kts | 357° |
| 2026-04-23 12:53 | 33.55822 | 114.47970 | 37044 ft | 453 kts | 357° |
| 2026-04-23 12:54 | 33.62106 | 114.48567 | 37037 ft | 452 kts | 357° |
| 2026-04-23 12:54 | 33.68373 | 114.49141 | 37033 ft | 451 kts | 357° |
| 2026-04-23 12:55 | 33.74627 | 114.49707 | 37039 ft | 450 kts | 357° |
| 2026-04-23 12:55 | 33.80842 | 114.50275 | 37038 ft | 450 kts | 357° |
| 2026-04-23 12:56 | 33.87088 | 114.50856 | 37030 ft | 450 kts | 358° |
| 2026-04-23 12:56 | 33.93335 | 114.51452 | 37042 ft | 450 kts | 358° |
| 2026-04-23 12:57 | 33.99578 | 114.52048 | 37028 ft | 450 kts | 358° |
| 2026-04-23 12:57 | 34.05821 | 114.52642 | 37043 ft | 450 kts | 358° |
| 2026-04-23 12:58 | 34.12061 | 114.53237 | 37045 ft | 450 kts | 358° |
| 2026-04-23 12:58 | 34.18322 | 114.53836 | 37033 ft | 451 kts | 358° |
| 2026-04-23 12:59 | 34.24539 | 114.54431 | 37039 ft | 451 kts | 358° |
| 2026-04-23 12:59 | 34.30792 | 114.55029 | 37023 ft | 451 kts | 358° |
| 2026-04-23 13:00 | 34.37045 | 114.55629 | 37031 ft | 450 kts | 358° |
| 2026-04-23 13:00 | 34.43294 | 114.56230 | 37025 ft | 450 kts | 358° |
| 2026-04-23 13:01 | 34.49541 | 114.56829 | 37028 ft | 450 kts | 358° |
| 2026-04-23 13:01 | 34.55780 | 114.57420 | 37029 ft | 449 kts | 358° |
| 2026-04-23 13:02 | 34.62009 | 114.58008 | 37023 ft | 449 kts | 358° |
| 2026-04-23 13:02 | 34.68241 | 114.58602 | 37031 ft | 449 kts | 358° |
| 2026-04-23 13:03 | 34.74459 | 114.59194 | 37021 ft | 448 kts | 358° |
| 2026-04-23 13:03 | 34.80668 | 114.59787 | 37032 ft | 447 kts | 359° |
| 2026-04-23 13:04 | 34.86879 | 114.60384 | 37022 ft | 447 kts | 359° |
| 2026-04-23 13:04 | 34.93082 | 114.60979 | 37039 ft | 447 kts | 359° |
| 2026-04-23 13:05 | 34.99279 | 114.61574 | 37023 ft | 447 kts | 359° |
| 2026-04-23 13:05 | 35.05476 | 114.62170 | 37033 ft | 447 kts | 359° |
| 2026-04-23 13:06 | 35.14770 | 114.63065 | 37027 ft | 446 kts | 359° |
| 2026-04-23 13:07 | 35.20931 | 114.63659 | 37030 ft | 446 kts | 359° |
| 2026-04-23 13:07 | 35.27129 | 114.64258 | 37026 ft | 446 kts | 359° |
| 2026-04-23 13:08 | 35.33316 | 114.64857 | 37014 ft | 446 kts | 359° |
| 2026-04-23 13:08 | 35.39502 | 114.65458 | 37011 ft | 446 kts | 359° |
| 2026-04-23 13:09 | 35.45688 | 114.66058 | 37006 ft | 445 kts | 359° |
| 2026-04-23 13:09 | 35.51863 | 114.66658 | 36997 ft | 445 kts | 359° |
| 2026-04-23 13:10 | 35.58033 | 114.67257 | 37002 ft | 444 kts | 359° |
| 2026-04-23 13:10 | 35.64157 | 114.67857 | 36999 ft | 444 kts | 360° |
| 2026-04-23 13:11 | 35.70312 | 114.68459 | 37001 ft | 443 kts | 360° |
| 2026-04-23 13:11 | 35.76461 | 114.69061 | 36998 ft | 443 kts | 360° |
| 2026-04-23 13:12 | 35.81575 | 114.69561 | 37003 ft | 443 kts | 360° |
| 2026-04-23 13:12 | 35.87714 | 114.70163 | 36991 ft | 442 kts | 360° |
| 2026-04-23 13:13 | 35.93849 | 114.70766 | 37030 ft | 441 kts | 360° |
| 2026-04-23 13:13 | 35.99972 | 114.71369 | 37028 ft | 441 kts | 360° |
| 2026-04-23 13:14 | 36.06096 | 114.71971 | 37025 ft | 441 kts | 0° |
| 2026-04-23 13:14 | 36.12218 | 114.72572 | 37027 ft | 441 kts | 0° |
| 2026-04-23 13:15 | 36.18332 | 114.73165 | 37024 ft | 440 kts | 0° |
| 2026-04-23 13:15 | 36.24395 | 114.73751 | 37027 ft | 439 kts | 0° |
| 2026-04-23 13:16 | 36.30487 | 114.74339 | 37015 ft | 439 kts | 0° |
| 2026-04-23 13:16 | 36.36573 | 114.75109 | 36983 ft | 444 kts | 10° |
| 2026-04-23 13:16 | 36.39520 | 114.76279 | 37101 ft | 445 kts | 17° |
| 2026-04-23 13:17 | 36.42395 | 114.77794 | 36986 ft | 450 kts | 21° |
| 2026-04-23 13:17 | 36.48043 | 114.81129 | 37011 ft | 450 kts | 21° |
| 2026-04-23 13:18 | 36.53710 | 114.84446 | 37017 ft | 450 kts | 21° |
| 2026-04-23 13:18 | 36.59398 | 114.87737 | 37013 ft | 451 kts | 21° |
| 2026-04-23 13:19 | 36.65089 | 114.91037 | 37023 ft | 451 kts | 21° |
| 2026-04-23 13:19 | 36.70780 | 114.94351 | 37013 ft | 452 kts | 21° |
| 2026-04-23 13:20 | 36.76480 | 114.97677 | 37009 ft | 452 kts | 21° |
| 2026-04-23 13:20 | 36.82163 | 115.00997 | 37008 ft | 451 kts | 21° |
| 2026-04-23 13:21 | 36.87843 | 115.04316 | 37010 ft | 450 kts | 21° |
| 2026-04-23 13:21 | 36.93473 | 115.07614 | 37002 ft | 450 kts | 21° |
| 2026-04-23 13:22 | 36.99132 | 115.10938 | 36989 ft | 449 kts | 21° |
| 2026-04-23 13:22 | 37.04782 | 115.14260 | 36989 ft | 449 kts | 22° |
| 2026-04-23 13:23 | 37.10427 | 115.17587 | 36991 ft | 448 kts | 21° |
| 2026-04-23 13:23 | 37.16073 | 115.20916 | 36980 ft | 448 kts | 21° |
| 2026-04-23 13:24 | 37.21708 | 115.24247 | 36982 ft | 448 kts | 21° |
| 2026-04-23 13:24 | 37.27357 | 115.27591 | 36982 ft | 449 kts | 22° |
| 2026-04-23 13:25 | 37.33008 | 115.30938 | 36978 ft | 449 kts | 22° |
| 2026-04-23 13:25 | 37.38658 | 115.34291 | 36983 ft | 448 kts | 22° |
| 2026-04-23 13:26 | 37.44256 | 115.37619 | 36993 ft | 448 kts | 22° |